KOCQ

Oconto-J Douglas Bake Municipal Airport

Oconto, Wisconsin, USA
METAR KOCQ 221715Z AUTO 14008KT 10SM CLR 16/11 A3005 RMK AO1 T01610111
Observed Flight Rules
May-22 @ 17:15 UTC (31 minutes ago) Visual Flight Rules
Wind Visibility Clouds
140° at 8 knots 10 miles
  • Clear skies
Temperatures Readings
Current 16°C / 61°F
Dewpoint 11°C / 52°F
Humidity 72%
Altimeter 30.05" Hg
Pressure 1018 hPa
Elevation 183
METAR KOCQ 221715Z AUTO 14008KT 10SM CLR 16/11 A3005 RMK AO1 T01610111
Observed Flight Rules
May-22 @ 17:15 UTC
(31 minutes ago)
VFR
Wind Visibility
140° at 8 knots 10 miles
Clouds
  • Clear skies
Temperature Dewpoint
16°C / 61°F 11°C / 52°F
Humidity Altimeter Pressure
72% 30.05" Hg 1018 hPa